createdAt,value
2022-10-02T00:02:43.047Z,3.03
2022-10-02T00:05:23.055Z,3.17
2022-10-02T00:07:57.754Z,3.63
2022-10-02T00:10:47.254Z,3.47
2022-10-02T00:13:37.726Z,3.30
2022-10-02T00:16:20.423Z,3.40
2022-10-02T00:18:49.194Z,3.37
2022-10-02T00:21:34.336Z,3.40
2022-10-02T00:24:04.804Z,4.43
2022-10-02T00:26:42.946Z,3.63
2022-10-02T00:29:40.832Z,3.37
2022-10-02T00:32:37.683Z,3.43
2022-10-02T00:35:32.475Z,3.37
2022-10-02T00:38:41.589Z,3.00
2022-10-02T00:41:41.152Z,3.70
2022-10-02T00:44:37.414Z,3.90
2022-10-02T00:47:33.334Z,3.40
2022-10-02T00:50:37.299Z,3.43
2022-10-02T00:53:36.102Z,3.40
2022-10-02T00:56:47.395Z,3.30
2022-10-02T01:00:03.722Z,3.60
2022-10-02T01:02:51.332Z,3.37
2022-10-02T01:05:20.500Z,3.23
2022-10-02T01:07:53.049Z,3.70
2022-10-02T01:10:25.548Z,3.63
2022-10-02T01:12:57.630Z,3.03
2022-10-02T01:15:36.602Z,4.37
2022-10-02T01:18:04.289Z,3.50
2022-10-02T01:20:48.377Z,3.07
2022-10-02T01:23:41.101Z,3.00
2022-10-02T01:26:08.127Z,2.90
2022-10-02T01:28:35.345Z,2.97
2022-10-02T01:31:13.465Z,3.20
2022-10-02T01:33:44.572Z,3.10
2022-10-02T01:36:14.896Z,2.97
2022-10-02T01:38:44.226Z,3.53
2022-10-02T01:41:12.230Z,2.90
2022-10-02T01:44:02.542Z,3.47
2022-10-02T01:47:00.905Z,4.00
2022-10-02T01:49:51.666Z,3.23
2022-10-02T01:52:55.950Z,4.00
2022-10-02T01:55:45.491Z,4.00
2022-10-02T01:59:18.910Z,3.20
2022-10-02T02:02:24.754Z,3.47
2022-10-02T02:05:05.264Z,3.17
2022-10-02T02:07:55.643Z,3.60
2022-10-02T02:10:49.031Z,3.50
2022-10-02T02:13:45.347Z,3.37
2022-10-02T02:16:43.387Z,4.40
2022-10-02T02:19:39.051Z,3.90
2022-10-02T02:22:26.324Z,3.60
2022-10-02T02:25:06.743Z,3.97
2022-10-02T02:27:42.111Z,3.57
2022-10-02T02:30:14.374Z,3.10
2022-10-02T02:32:52.207Z,4.07
2022-10-02T02:35:33.708Z,3.90
2022-10-02T02:38:11.007Z,3.80
2022-10-02T02:40:45.506Z,3.63
2022-10-02T02:43:30.940Z,3.73
2022-10-02T02:46:08.144Z,4.07
2022-10-02T02:48:48.313Z,3.40
2022-10-02T02:51:36.481Z,2.47
2022-10-02T02:54:26.386Z,1.90
2022-10-02T02:56:57.569Z,1.80
2022-10-02T02:59:31.376Z,1.57
2022-10-02T03:01:58.952Z,1.27
2022-10-02T03:04:26.010Z,1.60
2022-10-02T03:07:01.109Z,1.40
2022-10-02T03:09:33.382Z,1.37
2022-10-02T03:12:34.166Z,1.20
2022-10-02T03:15:22.993Z,1.50
2022-10-02T03:18:49.124Z,1.20
2022-10-02T03:21:31.496Z,1.20
2022-10-02T03:24:31.049Z,1.40
2022-10-02T03:27:23.499Z,1.50
2022-10-02T03:30:09.149Z,1.67
2022-10-02T03:32:39.642Z,1.77
2022-10-02T03:35:13.135Z,1.90
2022-10-02T03:37:50.236Z,1.97
2022-10-02T03:40:17.317Z,2.10
2022-10-02T03:42:44.197Z,2.30
2022-10-02T03:45:16.571Z,2.43
2022-10-02T03:47:54.778Z,2.47
2022-10-02T03:50:22.110Z,2.60
2022-10-02T03:52:53.772Z,2.60
2022-10-02T03:55:37.578Z,2.70
2022-10-02T03:58:14.832Z,3.20
2022-10-02T04:01:07.823Z,3.83
2022-10-02T04:03:49.230Z,4.13
2022-10-02T04:06:28.374Z,4.87
2022-10-02T04:09:14.693Z,4.93
2022-10-02T04:11:48.981Z,5.13
2022-10-02T04:14:39.201Z,5.07
2022-10-02T04:17:15.559Z,6.17
2022-10-02T04:19:59.924Z,5.57
2022-10-02T04:22:52.258Z,6.63
2022-10-02T04:25:26.232Z,6.50
2022-10-02T04:28:10.948Z,8.03
2022-10-02T04:30:38.001Z,6.93
2022-10-02T04:33:18.858Z,7.30
2022-10-02T04:36:03.968Z,6.70
2022-10-02T04:38:59.229Z,7.17
2022-10-02T04:41:57.888Z,8.43
2022-10-02T04:44:44.982Z,8.33
2022-10-02T04:48:01.273Z,7.63
2022-10-02T04:51:01.599Z,8.33
2022-10-02T04:53:58.382Z,7.73
2022-10-02T04:57:03.857Z,7.00
2022-10-02T05:00:27.652Z,7.10
2022-10-02T05:03:33.296Z,7.00
2022-10-02T05:06:22.552Z,7.23
2022-10-02T05:09:20.945Z,6.17
2022-10-02T05:12:38.601Z,7.10
2022-10-02T05:15:30.938Z,6.63
2022-10-02T05:18:29.842Z,7.17
2022-10-02T05:21:17.797Z,6.27
2022-10-02T05:24:06.281Z,5.43
2022-10-02T05:27:06.876Z,5.77
2022-10-02T05:29:48.368Z,5.20
2022-10-02T05:33:03.538Z,4.20
2022-10-02T05:35:59.057Z,4.60
2022-10-02T05:39:00.971Z,4.30
2022-10-02T05:41:48.347Z,4.87
2022-10-02T05:45:23.947Z,4.50
2022-10-02T05:47:59.149Z,4.70
2022-10-02T05:50:35.105Z,4.20
2022-10-02T05:53:48.238Z,4.53
2022-10-02T05:56:35.395Z,4.37
2022-10-02T05:59:22.697Z,5.03
2022-10-02T06:01:53.315Z,4.43
2022-10-02T06:04:33.633Z,4.83
2022-10-02T06:07:15.509Z,4.60
2022-10-02T06:09:55.239Z,4.07
2022-10-02T06:12:34.978Z,4.73
2022-10-02T06:15:19.117Z,4.73
2022-10-02T06:18:03.074Z,4.43
2022-10-02T06:20:56.266Z,4.13
2022-10-02T06:23:37.407Z,4.50
2022-10-02T06:26:26.614Z,4.53
2022-10-02T06:29:02.436Z,4.73
2022-10-02T06:32:16.579Z,4.40
2022-10-02T06:34:47.930Z,4.40
2022-10-02T06:37:41.277Z,4.77
2022-10-02T06:44:47.871Z,4.13
2022-10-02T06:48:11.027Z,4.07
2022-10-02T06:50:58.262Z,4.43
2022-10-02T06:53:50.190Z,4.13
2022-10-02T06:57:01.423Z,4.43
2022-10-02T06:59:59.358Z,4.60
2022-10-02T07:02:55.002Z,5.00
2022-10-02T07:06:04.107Z,4.60
2022-10-02T07:09:11.457Z,5.17
2022-10-02T07:12:17.114Z,5.32
2022-10-02T07:15:26.254Z,5.70
2022-10-02T07:18:43.064Z,5.87
2022-10-02T07:21:57.734Z,5.50
2022-10-02T07:24:40.448Z,5.00
2022-10-02T07:27:10.264Z,5.03
2022-10-02T07:30:19.151Z,5.30
2022-10-02T07:33:14.238Z,5.47
2022-10-02T07:35:48.594Z,5.57
2022-10-02T07:38:45.566Z,5.88
2022-10-02T07:41:46.386Z,6.20
2022-10-02T07:45:34.115Z,6.80
2022-10-02T07:48:52.588Z,6.57
2022-10-02T07:51:53.813Z,7.03
2022-10-02T07:55:08.796Z,6.93
2022-10-02T07:58:10.077Z,7.20
2022-10-02T08:00:54.669Z,7.07
2022-10-02T08:03:39.829Z,7.93
2022-10-02T08:06:08.503Z,6.93
2022-10-02T08:09:03.904Z,7.43
2022-10-02T08:11:49.216Z,6.65
2022-10-02T08:14:25.916Z,6.50
2022-10-02T08:17:22.881Z,6.50
2022-10-02T08:24:57.830Z,5.95
2022-10-02T08:27:53.029Z,6.38
2022-10-02T08:30:20.209Z,6.90
2022-10-02T08:32:47.991Z,6.22
2022-10-02T08:35:20.083Z,6.57
2022-10-02T08:38:28.397Z,6.15
2022-10-02T08:42:03.070Z,5.35
2022-10-02T08:45:01.216Z,4.82
2022-10-02T08:47:58.503Z,5.50
2022-10-02T08:50:55.631Z,5.13
2022-10-02T08:53:37.238Z,5.22
2022-10-02T08:57:00.135Z,4.90
2022-10-02T08:59:43.227Z,5.10
2022-10-02T09:03:02.135Z,6.18
2022-10-02T09:06:32.374Z,4.88
2022-10-02T09:09:17.245Z,5.32
2022-10-02T09:12:35.529Z,5.75
2022-10-02T09:15:46.877Z,6.38
2022-10-02T09:18:54.204Z,5.90
2022-10-02T09:21:59.062Z,6.55
2022-10-02T09:25:01.467Z,6.43
2022-10-02T09:28:08.102Z,6.97
2022-10-02T09:30:50.786Z,6.97
2022-10-02T09:33:46.316Z,7.60
2022-10-02T09:36:35.333Z,7.82
2022-10-02T09:39:36.628Z,7.45
2022-10-02T09:42:31.188Z,7.75
2022-10-02T09:45:36.513Z,7.07
2022-10-02T09:48:48.013Z,7.88
2022-10-02T09:51:53.791Z,7.20
2022-10-02T09:54:56.935Z,7.97
2022-10-02T09:58:16.151Z,7.95
2022-10-02T10:01:17.973Z,7.45
2022-10-02T10:05:06.605Z,7.28
2022-10-02T10:08:28.906Z,6.68
2022-10-02T10:11:30.800Z,7.03
2022-10-02T10:14:55.286Z,8.02
2022-10-02T10:18:27.137Z,6.70
2022-10-02T10:21:34.001Z,6.05
2022-10-02T10:24:32.359Z,6.95
2022-10-02T10:28:01.013Z,6.05
2022-10-02T10:31:26.544Z,5.50
2022-10-02T10:34:46.217Z,4.70
2022-10-02T10:38:13.119Z,4.60
2022-10-02T10:41:22.994Z,4.90
2022-10-02T10:44:26.176Z,4.65
2022-10-02T10:47:39.094Z,4.32
2022-10-02T10:50:35.732Z,4.07
2022-10-02T10:53:28.253Z,4.03
2022-10-02T10:56:34.875Z,3.53
2022-10-02T10:59:54.043Z,4.07
2022-10-02T11:02:56.325Z,3.85
2022-10-02T11:06:17.822Z,4.03
2022-10-02T11:08:56.330Z,4.72
2022-10-02T11:11:42.766Z,4.35
2022-10-02T11:14:35.616Z,3.65
2022-10-02T11:17:11.693Z,4.82
2022-10-02T11:19:47.696Z,3.88
2022-10-02T11:22:41.585Z,4.25
2022-10-02T11:25:31.637Z,3.55
2022-10-02T11:28:38.703Z,4.10
2022-10-02T11:31:37.341Z,4.03
2022-10-02T11:34:26.351Z,4.50
2022-10-02T11:37:38.759Z,4.25
2022-10-02T11:40:37.353Z,3.90
2022-10-02T11:43:44.073Z,3.28
2022-10-02T11:46:37.078Z,3.70
2022-10-02T11:49:35.971Z,4.13
2022-10-02T11:52:21.777Z,3.70
2022-10-02T11:54:55.061Z,4.18
2022-10-02T11:58:05.197Z,3.83
2022-10-02T12:01:10.635Z,4.32
2022-10-02T12:04:22.275Z,4.25
2022-10-02T12:07:21.888Z,3.75
2022-10-02T12:10:16.443Z,3.47
2022-10-02T12:13:07.529Z,3.75
2022-10-02T12:16:11.561Z,3.55
2022-10-02T12:19:16.336Z,4.45
2022-10-02T12:22:40.246Z,3.70
2022-10-02T12:26:35.842Z,3.78
2022-10-02T12:29:52.693Z,3.30
2022-10-02T12:32:27.296Z,3.70
2022-10-02T12:34:57.192Z,3.75
2022-10-02T12:37:53.557Z,3.80
2022-10-02T12:40:47.448Z,3.03
2022-10-02T12:43:29.449Z,3.75
2022-10-02T12:46:24.950Z,3.30
2022-10-02T12:49:12.422Z,2.85
2022-10-02T12:52:28.321Z,3.13
2022-10-02T12:55:51.899Z,2.78
2022-10-02T12:58:47.117Z,3.30
2022-10-02T13:02:11.337Z,2.60
2022-10-02T13:05:05.260Z,2.63
2022-10-02T13:08:15.149Z,3.30
2022-10-02T13:11:35.232Z,2.85
2022-10-02T13:14:36.512Z,2.78
2022-10-02T13:17:36.014Z,2.67
2022-10-02T13:20:19.506Z,2.67
2022-10-02T13:23:07.420Z,2.78
2022-10-02T13:26:16.380Z,2.38
2022-10-02T13:29:13.802Z,3.45
2022-10-02T13:32:06.892Z,2.28
2022-10-02T13:35:23.372Z,2.70
2022-10-02T13:38:26.702Z,2.67
2022-10-02T13:41:21.603Z,2.70
2022-10-02T13:44:20.061Z,2.05
2022-10-02T13:47:31.775Z,2.20
2022-10-02T13:50:17.874Z,1.75
2022-10-02T13:53:24.486Z,1.60
2022-10-02T13:56:20.787Z,1.92
2022-10-02T13:59:31.326Z,1.80
2022-10-02T14:02:03.882Z,1.80
2022-10-02T14:04:55.438Z,1.80
2022-10-02T14:08:00.577Z,1.80
2022-10-02T14:11:08.023Z,1.90
2022-10-02T14:14:03.190Z,1.90
2022-10-02T14:17:00.898Z,2.20
2022-10-02T14:19:52.712Z,1.77
2022-10-02T14:22:51.796Z,1.92
2022-10-02T14:25:48.958Z,1.65
2022-10-02T14:29:09.202Z,1.90
2022-10-02T14:32:11.060Z,1.85
2022-10-02T14:35:12.004Z,1.70
2022-10-02T14:38:32.531Z,2.00
2022-10-02T14:41:20.286Z,1.75
2022-10-02T14:44:07.378Z,2.10
2022-10-02T14:46:49.650Z,2.10
2022-10-02T14:50:17.248Z,1.80
2022-10-02T14:52:56.446Z,2.03
2022-10-02T14:55:59.398Z,1.77
2022-10-02T14:58:49.811Z,1.50
2022-10-02T15:01:26.568Z,1.77
2022-10-02T15:04:43.919Z,1.88
2022-10-02T15:07:20.463Z,1.98
2022-10-02T15:10:16.250Z,2.28
2022-10-02T15:12:59.649Z,1.75
2022-10-02T15:16:11.011Z,1.65
2022-10-02T15:19:02.076Z,1.40
2022-10-02T15:21:42.396Z,1.75
2022-10-02T15:24:33.845Z,1.48
2022-10-02T15:27:23.772Z,1.52
2022-10-02T15:30:17.725Z,1.42
2022-10-02T15:33:11.114Z,1.63
2022-10-02T15:36:17.340Z,1.40
2022-10-02T15:39:34.879Z,1.67
2022-10-02T15:42:19.027Z,1.60
2022-10-02T15:45:24.208Z,2.00
2022-10-02T15:48:15.638Z,2.08
2022-10-02T15:51:11.373Z,1.88
2022-10-02T15:54:08.743Z,1.48
2022-10-02T15:57:01.272Z,2.00
2022-10-02T15:59:58.725Z,1.90
2022-10-02T16:02:48.275Z,1.65
2022-10-02T16:05:53.905Z,2.20
2022-10-02T16:08:20.736Z,1.90
2022-10-02T16:11:42.061Z,1.83
2022-10-02T16:14:34.178Z,1.60
2022-10-02T16:17:36.446Z,2.25
2022-10-02T16:20:31.161Z,2.20
2022-10-02T16:23:55.999Z,2.00
2022-10-02T16:26:52.239Z,1.70
2022-10-02T16:29:58.648Z,2.00
2022-10-02T16:32:43.958Z,1.80
2022-10-02T16:36:04.290Z,2.22
2022-10-02T16:39:02.298Z,2.05
2022-10-02T16:42:01.895Z,1.80
2022-10-02T16:44:57.140Z,2.33
2022-10-02T16:48:03.439Z,1.65
2022-10-02T16:51:12.594Z,2.42
2022-10-02T16:53:54.856Z,1.83
2022-10-02T16:56:52.467Z,1.67
2022-10-02T16:59:38.359Z,2.20
2022-10-02T17:02:46.474Z,1.90
2022-10-02T17:05:45.685Z,1.90
2022-10-02T17:08:34.774Z,2.40
2022-10-02T17:11:26.741Z,2.10
2022-10-02T17:14:56.675Z,1.70
2022-10-02T17:17:42.615Z,2.10
2022-10-02T17:20:23.347Z,2.50
2022-10-02T17:23:15.222Z,2.03
2022-10-02T17:25:58.664Z,1.70
2022-10-02T17:29:00.487Z,1.90
2022-10-02T17:31:58.522Z,1.73
2022-10-02T17:34:44.995Z,2.80
2022-10-02T17:37:17.999Z,4.23
2022-10-02T17:39:53.874Z,3.50
2022-10-02T17:42:51.812Z,3.20
2022-10-02T17:46:02.705Z,3.87
2022-10-02T17:49:08.895Z,3.40
2022-10-02T17:52:25.920Z,2.53
2022-10-02T17:55:42.196Z,2.90
2022-10-02T17:58:52.104Z,2.43
2022-10-02T18:01:52.760Z,2.63
2022-10-02T18:04:58.076Z,2.67
2022-10-02T18:08:06.688Z,2.73
2022-10-02T18:10:54.905Z,3.03
2022-10-02T18:13:59.610Z,2.73
2022-10-02T18:16:57.614Z,2.40
2022-10-02T18:20:19.233Z,1.90
2022-10-02T18:23:15.404Z,2.43
2022-10-02T18:26:09.078Z,2.80
2022-10-02T18:28:42.281Z,2.97
2022-10-02T18:31:54.163Z,3.00
2022-10-02T18:34:43.818Z,16.00
2022-10-02T18:37:58.532Z,9.57
2022-10-02T18:40:36.940Z,5.03
2022-10-02T18:43:52.108Z,3.60
2022-10-02T18:46:46.796Z,3.10
2022-10-02T18:49:36.538Z,2.57
2022-10-02T18:52:43.309Z,2.70
2022-10-02T18:55:44.221Z,3.00
2022-10-02T18:59:02.117Z,2.23
2022-10-02T19:02:26.334Z,1.87
2022-10-02T19:05:36.545Z,2.30
2022-10-02T19:08:03.578Z,3.03
2022-10-02T19:10:33.496Z,3.23
2022-10-02T19:13:27.615Z,2.83
2022-10-02T19:15:58.609Z,2.93
2022-10-02T19:18:29.451Z,2.60
2022-10-02T19:21:10.978Z,3.07
2022-10-02T19:23:51.239Z,2.50
2022-10-02T19:26:33.853Z,2.00
2022-10-02T19:29:36.987Z,2.00
2022-10-02T19:32:09.967Z,2.87
2022-10-02T19:34:36.944Z,2.60
2022-10-02T19:37:08.093Z,2.13
2022-10-02T19:39:42.047Z,2.63
2022-10-02T19:42:26.550Z,2.30
2022-10-02T19:45:07.975Z,2.67
2022-10-02T19:47:50.213Z,2.60
2022-10-02T19:50:27.903Z,2.10
2022-10-02T19:53:06.828Z,2.17
2022-10-02T19:55:41.638Z,2.80
2022-10-02T19:58:51.807Z,2.30
2022-10-02T20:01:27.098Z,2.53
2022-10-02T20:04:02.635Z,2.63
2022-10-02T20:06:37.627Z,3.07
2022-10-02T20:09:25.207Z,2.80
2022-10-02T20:12:02.437Z,3.10
2022-10-02T20:15:14.448Z,3.17
2022-10-02T20:17:42.227Z,3.20
2022-10-02T20:20:16.543Z,3.43
2022-10-02T20:22:58.753Z,3.37
2022-10-02T20:25:53.041Z,3.27
2022-10-02T20:28:46.874Z,3.00
2022-10-02T20:31:31.420Z,2.60
2022-10-02T20:34:09.414Z,2.77
2022-10-02T20:36:54.915Z,2.23
2022-10-02T20:39:29.519Z,2.97
2022-10-02T20:42:14.853Z,3.17
2022-10-02T20:44:42.123Z,3.50
2022-10-02T20:47:49.998Z,2.80
2022-10-02T20:50:40.485Z,3.53
2022-10-02T20:54:00.065Z,2.40
2022-10-02T20:56:51.346Z,2.93
2022-10-02T20:59:46.822Z,2.60
2022-10-02T21:03:08.338Z,2.60
2022-10-02T21:06:04.163Z,3.20
2022-10-02T21:09:10.608Z,2.63
2022-10-02T21:12:09.827Z,2.63
2022-10-02T21:15:05.911Z,2.50
2022-10-02T21:17:54.361Z,2.80
2022-10-02T21:20:53.693Z,3.07
2022-10-02T21:24:14.837Z,2.83
2022-10-02T21:26:57.432Z,2.80
2022-10-02T21:30:22.400Z,2.70
2022-10-02T21:33:13.645Z,2.47
2022-10-02T21:36:07.400Z,2.90
2022-10-02T21:38:59.013Z,2.73
2022-10-02T21:42:22.387Z,2.60
2022-10-02T21:45:36.388Z,2.50
2022-10-02T21:48:42.325Z,2.20
2022-10-02T21:51:23.952Z,2.97
2022-10-02T21:54:24.602Z,2.90
2022-10-02T21:57:32.529Z,3.80
2022-10-02T22:00:18.833Z,3.07
2022-10-02T22:03:23.065Z,3.47
2022-10-02T22:06:19.721Z,3.27
2022-10-02T22:09:44.545Z,3.20
2022-10-02T22:13:23.714Z,3.73
2022-10-02T22:16:13.564Z,3.50
2022-10-02T22:18:57.532Z,3.30
2022-10-02T22:21:51.943Z,3.33
2022-10-02T22:25:02.834Z,3.03
2022-10-02T22:28:06.904Z,3.40
2022-10-02T22:30:58.314Z,3.03
2022-10-02T22:33:54.244Z,3.20
2022-10-02T22:37:16.899Z,3.10
2022-10-02T22:40:00.820Z,3.67
2022-10-02T22:42:41.887Z,3.13
2022-10-02T22:45:34.555Z,3.33
2022-10-02T22:48:13.458Z,3.13
2022-10-02T22:50:59.693Z,3.37
2022-10-02T22:53:49.782Z,3.10
2022-10-02T22:56:51.413Z,3.13
2022-10-02T22:59:41.607Z,2.90
2022-10-02T23:02:22.037Z,3.40
2022-10-02T23:05:05.518Z,3.43
2022-10-02T23:07:47.873Z,3.20
2022-10-02T23:10:27.094Z,3.00
2022-10-02T23:13:05.803Z,3.37
2022-10-02T23:15:42.584Z,3.63
2022-10-02T23:18:45.391Z,3.17
2022-10-02T23:21:52.592Z,3.60
2022-10-02T23:24:47.507Z,2.97
2022-10-02T23:27:31.499Z,2.97
2022-10-02T23:30:11.285Z,3.17
2022-10-02T23:32:44.749Z,3.00
2022-10-02T23:35:27.289Z,3.67
2022-10-02T23:38:01.163Z,3.10
2022-10-02T23:41:28.540Z,3.30
2022-10-02T23:44:19.636Z,3.10
2022-10-02T23:47:24.771Z,3.47
2022-10-02T23:50:20.193Z,3.20
2022-10-02T23:53:27.402Z,3.47
2022-10-02T23:56:22.328Z,3.10
2022-10-02T23:59:15.104Z,3.30
